sensor_id;sensor_type;location;lat;lon;timestamp;P1;durP1;ratioP1;P2;durP2;ratioP2
23804;SDS011;12083;52.098;7.582;2022-11-04T08:36:15;21.80;;;6.30;;
23804;SDS011;12083;52.098;7.582;2022-11-04T08:38:46;19.50;;;7.40;;
23804;SDS011;12083;52.098;7.582;2022-11-04T08:41:13;11.63;;;6.37;;
23804;SDS011;12083;52.098;7.582;2022-11-04T08:43:41;6.97;;;4.47;;
23804;SDS011;12083;52.098;7.582;2022-11-04T08:46:07;15.53;;;5.27;;
23804;SDS011;12083;52.098;7.582;2022-11-04T08:48:35;22.43;;;5.30;;
23804;SDS011;12083;52.098;7.582;2022-11-04T08:51:03;14.13;;;4.70;;
23804;SDS011;12083;52.098;7.582;2022-11-04T08:53:29;15.67;;;3.93;;
23804;SDS011;12083;52.098;7.582;2022-11-04T08:55:55;15.93;;;4.93;;
23804;SDS011;12083;52.098;7.582;2022-11-04T08:58:21;13.70;;;3.90;;
23804;SDS011;12083;52.098;7.582;2022-11-04T09:00:49;9.97;;;3.80;;
23804;SDS011;12083;52.098;7.582;2022-11-04T09:03:15;15.63;;;4.13;;
23804;SDS011;12083;52.098;7.582;2022-11-04T09:05:41;11.90;;;2.97;;
23804;SDS011;12083;52.098;7.582;2022-11-04T09:08:14;5.37;;;2.20;;
23804;SDS011;12083;52.098;7.582;2022-11-04T09:10:44;15.80;;;4.07;;
23804;SDS011;12083;52.098;7.582;2022-11-04T09:13:12;15.87;;;4.80;;
23804;SDS011;12083;52.098;7.582;2022-11-04T09:15:39;9.23;;;3.70;;
23804;SDS011;12083;52.098;7.582;2022-11-04T09:18:05;7.43;;;2.67;;
23804;SDS011;12083;52.098;7.582;2022-11-04T09:20:31;12.20;;;2.70;;
23804;SDS011;12083;52.098;7.582;2022-11-04T09:22:58;12.50;;;3.00;;
23804;SDS011;12083;52.098;7.582;2022-11-04T09:25:24;12.90;;;5.17;;
23804;SDS011;12083;52.098;7.582;2022-11-04T09:27:50;14.43;;;2.90;;
23804;SDS011;12083;52.098;7.582;2022-11-04T09:30:15;18.27;;;3.67;;
23804;SDS011;12083;52.098;7.582;2022-11-04T09:32:41;13.97;;;3.10;;
23804;SDS011;12083;52.098;7.582;2022-11-04T09:35:07;13.13;;;2.60;;
23804;SDS011;12083;52.098;7.582;2022-11-04T09:37:33;9.77;;;3.10;;
23804;SDS011;12083;52.098;7.582;2022-11-04T09:39:58;10.00;;;3.17;;
23804;SDS011;12083;52.098;7.582;2022-11-04T09:45:14;14.53;;;3.10;;
23804;SDS011;12083;52.098;7.582;2022-11-04T09:47:47;8.77;;;2.90;;
23804;SDS011;12083;52.098;7.582;2022-11-04T09:50:17;14.93;;;2.90;;
23804;SDS011;12083;52.098;7.582;2022-11-04T09:53:03;10.40;;;3.17;;
23804;SDS011;12083;52.098;7.582;2022-11-04T09:55:37;14.57;;;3.47;;
23804;SDS011;12083;52.098;7.582;2022-11-04T09:58:10;9.63;;;3.73;;
23804;SDS011;12083;52.098;7.582;2022-11-04T10:00:38;8.50;;;2.80;;
23804;SDS011;12083;52.098;7.582;2022-11-04T10:05:53;6.77;;;1.90;;
23804;SDS011;12083;52.098;7.582;2022-11-04T10:19:42;6.43;;;2.50;;
23804;SDS011;12083;52.098;7.582;2022-11-04T10:22:33;5.07;;;2.70;;
23804;SDS011;12083;52.098;7.582;2022-11-04T10:25:14;9.23;;;2.60;;
23804;SDS011;12083;52.098;7.582;2022-11-04T10:27:45;16.17;;;3.10;;
23804;SDS011;12083;52.098;7.582;2022-11-04T10:30:20;8.10;;;3.83;;
23804;SDS011;12083;52.098;7.582;2022-11-04T10:32:51;7.50;;;2.70;;
23804;SDS011;12083;52.098;7.582;2022-11-04T10:35:34;7.90;;;3.37;;
23804;SDS011;12083;52.098;7.582;2022-11-04T10:38:13;9.33;;;2.67;;
23804;SDS011;12083;52.098;7.582;2022-11-04T10:40:43;10.10;;;2.80;;
23804;SDS011;12083;52.098;7.582;2022-11-04T10:43:12;6.73;;;2.27;;
23804;SDS011;12083;52.098;7.582;2022-11-04T10:48:39;6.13;;;2.17;;
23804;SDS011;12083;52.098;7.582;2022-11-04T10:51:13;7.07;;;2.57;;
23804;SDS011;12083;52.098;7.582;2022-11-04T10:53:44;14.87;;;2.30;;
23804;SDS011;12083;52.098;7.582;2022-11-04T11:01:54;5.37;;;2.43;;
23804;SDS011;12083;52.098;7.582;2022-11-04T11:04:25;9.73;;;2.33;;
23804;SDS011;12083;52.098;7.582;2022-11-04T11:06:53;14.03;;;3.00;;
23804;SDS011;12083;52.098;7.582;2022-11-04T11:09:22;11.60;;;2.73;;
23804;SDS011;12083;52.098;7.582;2022-11-04T11:11:54;11.87;;;2.97;;
23804;SDS011;12083;52.098;7.582;2022-11-04T11:16:55;22.50;;;3.07;;
23804;SDS011;12083;52.098;7.582;2022-11-04T11:19:22;27.73;;;2.60;;
23804;SDS011;12083;52.098;7.582;2022-11-04T11:21:53;11.07;;;2.57;;
23804;SDS011;12083;52.098;7.582;2022-11-04T11:24:24;14.30;;;2.43;;
23804;SDS011;12083;52.098;7.582;2022-11-04T11:26:52;6.83;;;1.83;;
23804;SDS011;12083;52.098;7.582;2022-11-04T11:29:21;5.40;;;2.10;;
23804;SDS011;12083;52.098;7.582;2022-11-04T11:31:49;7.87;;;2.57;;
23804;SDS011;12083;52.098;7.582;2022-11-04T11:34:36;9.40;;;2.30;;
23804;SDS011;12083;52.098;7.582;2022-11-04T11:37:03;12.93;;;4.53;;
23804;SDS011;12083;52.098;7.582;2022-11-04T11:39:32;7.90;;;1.77;;
23804;SDS011;12083;52.098;7.582;2022-11-04T11:42:01;4.93;;;2.30;;
23804;SDS011;12083;52.098;7.582;2022-11-04T11:44:33;8.20;;;2.40;;
23804;SDS011;12083;52.098;7.582;2022-11-04T11:49:45;9.93;;;1.97;;
23804;SDS011;12083;52.098;7.582;2022-11-04T11:52:32;10.20;;;2.40;;
23804;SDS011;12083;52.098;7.582;2022-11-04T12:00:29;9.50;;;2.40;;
23804;SDS011;12083;52.098;7.582;2022-11-04T12:02:58;11.40;;;3.10;;
23804;SDS011;12083;52.098;7.582;2022-11-04T12:05:35;7.33;;;2.20;;
23804;SDS011;12083;52.098;7.582;2022-11-04T12:14:05;9.73;;;3.40;;
23804;SDS011;12083;52.098;7.582;2022-11-04T12:30:20;10.20;;;1.73;;
23804;SDS011;12083;52.098;7.582;2022-11-04T12:32:52;3.17;;;1.37;;
23804;SDS011;12083;52.098;7.582;2022-11-04T12:35:38;7.57;;;1.50;;
23804;SDS011;12083;52.098;7.582;2022-11-04T12:40:40;8.70;;;2.07;;
23804;SDS011;12083;52.098;7.582;2022-11-04T12:51:31;6.07;;;1.50;;
23804;SDS011;12083;52.098;7.582;2022-11-04T12:54:26;6.63;;;2.53;;
23804;SDS011;12083;52.098;7.582;2022-11-04T12:57:11;11.53;;;2.40;;
23804;SDS011;12083;52.098;7.582;2022-11-04T12:59:57;8.33;;;2.30;;
23804;SDS011;12083;52.098;7.582;2022-11-04T13:08:23;13.07;;;2.23;;
23804;SDS011;12083;52.098;7.582;2022-11-04T13:13:55;6.53;;;2.23;;
23804;SDS011;12083;52.098;7.582;2022-11-04T13:16:22;8.97;;;1.93;;
23804;SDS011;12083;52.098;7.582;2022-11-04T13:18:48;14.93;;;2.50;;
23804;SDS011;12083;52.098;7.582;2022-11-04T13:21:16;10.83;;;2.40;;
23804;SDS011;12083;52.098;7.582;2022-11-04T13:23:51;7.87;;;2.10;;
23804;SDS011;12083;52.098;7.582;2022-11-04T13:26:22;12.63;;;2.17;;
23804;SDS011;12083;52.098;7.582;2022-11-04T13:28:53;10.97;;;1.63;;
23804;SDS011;12083;52.098;7.582;2022-11-04T13:39:40;10.90;;;2.00;;
23804;SDS011;12083;52.098;7.582;2022-11-04T13:45:07;6.10;;;1.67;;
23804;SDS011;12083;52.098;7.582;2022-11-04T13:47:41;14.40;;;2.73;;
23804;SDS011;12083;52.098;7.582;2022-11-04T13:50:25;8.27;;;2.07;;
23804;SDS011;12083;52.098;7.582;2022-11-04T13:53:06;17.67;;;3.30;;
23804;SDS011;12083;52.098;7.582;2022-11-04T13:55:34;6.70;;;2.53;;
23804;SDS011;12083;52.098;7.582;2022-11-04T13:58:02;9.10;;;3.40;;
23804;SDS011;12083;52.098;7.582;2022-11-04T14:00:30;4.93;;;1.90;;
23804;SDS011;12083;52.098;7.582;2022-11-04T14:02:57;11.30;;;2.17;;
23804;SDS011;12083;52.098;7.582;2022-11-04T14:10:44;10.77;;;2.60;;
23804;SDS011;12083;52.098;7.582;2022-11-04T14:18:28;5.20;;;2.47;;
23804;SDS011;12083;52.098;7.582;2022-11-04T14:23:30;6.87;;;2.10;;
23804;SDS011;12083;52.098;7.582;2022-11-04T14:26:00;10.57;;;3.17;;
23804;SDS011;12083;52.098;7.582;2022-11-04T14:28:28;7.10;;;2.27;;
23804;SDS011;12083;52.098;7.582;2022-11-04T14:30:56;13.80;;;2.80;;
